Time;durP1;ratioP1;P1;durP2;ratioP2;P2;SDS_P1;SDS_P2;PMS_P1;PMS_P2;Temp;Humidity;BMP_temperature;BMP_pressure;BME280_temperature;BME280_humidity;BME280_pressure;Samples;Min_cycle;Max_cycle;Signal;HPM_P1;HPM_P2
2023/11/21 00:02:28;;;;;;;44.80;29.70;;;;;;;;;;5092364;28;20051;-73
2023/11/21 00:05:32;;;;;;;46.47;28.20;;;;;;;;;;5092682;28;20522;-73
2023/11/21 00:08:39;;;;;;;45.35;32.42;;;;;;;;;;5091701;28;20055;-73
2023/11/21 00:11:44;;;;;;;47.00;30.67;;;;;;;;;;5091864;28;20384;-73
2023/11/21 00:14:48;;;;;;;46.55;30.08;;;;;;;;;;5091831;28;20043;-73
2023/11/21 00:17:53;;;;;;;44.33;29.95;;;;;;;;;;5091812;28;20047;-73
2023/11/21 00:20:58;;;;;;;41.83;29.80;;;;;;;;;;5093117;28;20058;-73
2023/11/21 00:24:03;;;;;;;48.60;30.77;;;;;;;;;;5092417;28;20488;-72
2023/11/21 00:27:07;;;;;;;46.15;30.63;;;;;;;;;;5092019;28;20394;-73
2023/11/21 00:30:12;;;;;;;43.60;31.27;;;;;;;;;;5091536;28;20047;-72
2023/11/21 00:33:17;;;;;;;44.80;28.63;;;;;;;;;;5079330;28;20055;-72
2023/11/21 00:36:21;;;;;;;38.22;28.02;;;;;;;;;;5095372;28;20039;-73
2023/11/21 00:39:26;;;;;;;42.42;28.25;;;;;;;;;;5083583;28;20047;-73
2023/11/21 00:42:31;;;;;;;46.60;29.63;;;;;;;;;;5095882;28;20047;-73
2023/11/21 00:45:36;;;;;;;33.95;20.88;;;;;;;;;;5083602;28;20047;-74
2023/11/21 00:48:40;;;;;;;38.30;24.70;;;;;;;;;;5095366;28;20047;-73
2023/11/21 00:51:45;;;;;;;38.45;23.30;;;;;;;;;;5094998;28;20043;-72
2023/11/21 00:54:49;;;;;;;39.40;24.83;;;;;;;;;;5095505;28;20038;-73
2023/11/21 00:57:54;;;;;;;37.05;25.58;;;;;;;;;;5095630;28;20047;-72
2023/11/21 01:00:58;;;;;;;42.40;25.02;;;;;;;;;;5083253;28;20387;-73
2023/11/21 01:04:02;;;;;;;36.17;25.40;;;;;;;;;;5082669;28;20039;-73
2023/11/21 01:07:07;;;;;;;43.38;28.35;;;;;;;;;;5096025;28;20050;-73
2023/11/21 01:10:11;;;;;;;42.47;27.65;;;;;;;;;;5084085;28;20051;-72
2023/11/21 01:13:15;;;;;;;40.85;28.20;;;;;;;;;;5097024;28;20047;-72
2023/11/21 01:16:19;;;;;;;36.58;22.52;;;;;;;;;;5095245;28;20039;-74
2023/11/21 01:19:23;;;;;;;40.97;27.48;;;;;;;;;;5082434;28;20042;-73
2023/11/21 01:22:28;;;;;;;36.80;27.13;;;;;;;;;;5095359;28;20047;-73
2023/11/21 01:25:32;;;;;;;39.88;26.00;;;;;;;;;;5095214;28;20055;-73
2023/11/21 01:28:37;;;;;;;37.67;26.85;;;;;;;;;;5095249;28;20059;-73
2023/11/21 01:31:41;;;;;;;38.47;27.80;;;;;;;;;;5094663;28;20043;-72
2023/11/21 01:34:45;;;;;;;40.38;27.85;;;;;;;;;;5095113;28;20043;-72
2023/11/21 01:37:50;;;;;;;40.15;25.92;;;;;;;;;;5081871;28;20043;-72
2023/11/21 01:40:56;;;;;;;41.17;28.05;;;;;;;;;;5081902;28;20039;-72
2023/11/21 01:44:00;;;;;;;40.05;27.73;;;;;;;;;;5081657;28;20043;-72
2023/11/21 01:47:09;;;;;;;41.33;27.05;;;15.10;99.90;;;;;;5093874;28;20503;-72
2023/11/21 01:50:16;;;;;;;40.25;27.42;;;;;;;;;;5081520;28;20515;-72
2023/11/21 01:53:20;;;;;;;38.10;26.75;;;;;;;;;;5081770;28;20043;-73
2023/11/21 01:56:26;;;;;;;33.85;26.08;;;;;;;;;;5093960;28;20118;-73
2023/11/21 01:59:42;;;;;;;45.88;25.33;;;;;;;;;;5094703;28;20059;-73
2023/11/21 02:02:47;;;;;;;36.38;23.80;;;;;;;;;;5094169;28;20428;-73
2023/11/21 02:05:52;;;;;;;34.95;24.80;;;;;;;;;;5094463;28;20043;-74
2023/11/21 02:08:56;;;;;;;38.85;25.42;;;;;;;;;;5094418;28;20047;-73
2023/11/21 02:12:01;;;;;;;34.50;24.63;;;;;;;;;;5094764;28;20051;-73
2023/11/21 02:15:09;;;;;;;52.60;40.00;;;;;;;;;;5082252;28;20055;-72
2023/11/21 02:18:15;;;;;;;35.25;24.95;;;;;;;;;;5082252;28;20062;-74
2023/11/21 02:21:19;;;;;;;40.33;26.92;;;;;;;;;;5093888;28;20035;-74
2023/11/21 02:24:24;;;;;;;36.58;26.80;;;;;;;;;;5081592;28;20047;-73
2023/11/21 02:27:28;;;;;;;30.15;23.13;;;;;;;;;;5081748;28;20035;-73
2023/11/21 02:30:33;;;;;;;34.67;24.70;;;;;;;;;;5082112;28;20051;-73
2023/11/21 02:33:37;;;;;;;34.25;22.17;;;;;;;;;;5094854;28;20054;-74
2023/11/21 02:36:42;;;;;;;31.27;19.48;;;;;;;;;;5094094;28;20403;-74
2023/11/21 02:39:47;;;;;;;30.38;21.10;;;;;;;;;;5081612;28;20059;-74
2023/11/21 02:42:51;;;;;;;31.55;19.40;;;15.10;99.90;;;;;;5081383;28;20219;-75
2023/11/21 02:45:56;;;;;;;27.85;18.88;;;;;;;;;;5093958;28;20043;-73
2023/11/21 02:49:01;;;;;;;29.45;17.58;;;;;;;;;;5093301;28;20055;-73
2023/11/21 02:52:06;;;;;;;25.73;16.23;;;;;;;;;;5094009;28;20389;-72
2023/11/21 02:55:10;;;;;;;20.88;14.63;;;;;;;;;;5093668;28;20047;-73
2023/11/21 02:58:14;;;;;;;25.63;15.10;;;;;;;;;;5092515;28;20054;-73
2023/11/21 03:01:18;;;;;;;23.70;15.90;;;;;;;;;;5082554;28;20035;-74
2023/11/21 03:04:23;;;;;;;21.33;13.85;;;;;;;;;;5082216;28;20042;-72
2023/11/21 03:07:27;;;;;;;24.65;14.55;;;;;;;;;;5093148;28;20043;-72
2023/11/21 03:10:32;;;;;;;20.42;12.90;;;;;;;;;;5093612;28;20051;-73
2023/11/21 03:13:36;;;;;;;22.52;13.75;;;;;;;;;;5080606;28;20043;-72
2023/11/21 03:16:41;;;;;;;21.75;14.52;;;;;;;;;;5092399;28;20055;-73
2023/11/21 03:19:45;;;;;;;20.15;13.82;;;;;;;;;;5080009;28;20039;-73
2023/11/21 03:22:50;;;;;;;21.33;13.90;;;;;;;;;;5092685;28;20051;-73
2023/11/21 03:25:54;;;;;;;22.48;12.73;;;;;;;;;;5092342;28;20495;-73
2023/11/21 03:28:58;;;;;;;20.77;11.95;;;;;;;;;;5092415;28;20067;-73
2023/11/21 03:32:06;;;;;;;24.85;12.55;;;;;;;;;;5080108;28;20449;-74
2023/11/21 03:35:10;;;;;;;16.10;12.25;;;;;;;;;;5068437;28;20039;-73
2023/11/21 03:38:15;;;;;;;20.08;13.38;;;;;;;;;;5092556;28;20067;-73
2023/11/21 03:41:19;;;;;;;21.92;13.35;;;;;;;;;;5079623;28;20043;-73
2023/11/21 03:44:24;;;;;;;20.50;13.35;;;;;;;;;;5092404;28;20063;-73
2023/11/21 03:47:30;;;;;;;17.83;13.32;;;;;;;;;;5092895;28;20043;-72
2023/11/21 03:50:35;;;;;;;17.65;12.77;;;;;;;;;;5092694;28;20051;-73
2023/11/21 03:53:39;;;;;;;21.33;12.80;;;;;;;;;;5092329;28;20047;-72
2023/11/21 03:56:45;;;;;;;24.02;13.70;;;;;;;;;;5080275;28;20049;-72
2023/11/21 03:59:50;;;;;;;21.75;14.07;;;;;;;;;;5092693;28;20486;-73
2023/11/21 04:02:54;;;;;;;20.73;14.05;;;;;;;;;;5093140;28;20094;-72
2023/11/21 04:05:59;;;;;;;19.73;13.60;;;;;;;;;;5092335;28;20043;-73
2023/11/21 04:09:04;;;;;;;21.65;12.70;;;;;;;;;;5092508;28;20050;-72
2023/11/21 04:12:11;;;;;;;19.80;12.73;;;;;;;;;;5080278;28;20043;-73
2023/11/21 04:15:15;;;;;;;20.23;13.15;;;;;;;;;;5092432;28;20419;-72
2023/11/21 04:18:20;;;;;;;19.75;12.75;;;;;;;;;;5092853;28;20047;-72
2023/11/21 04:21:24;;;;;;;20.30;12.05;;;;;;;;;;5092476;28;20043;-72
2023/11/21 04:24:28;;;;;;;22.13;11.77;;;;;;;;;;5079741;28;20047;-72
2023/11/21 04:27:33;;;;;;;20.17;10.95;;;;;;;;;;5092122;28;20495;-72
2023/11/21 04:30:39;;;;;;;17.08;11.43;;;;;;;;;;5091356;28;20059;-72
2023/11/21 04:33:46;;;;;;;17.98;11.15;;;;;;;;;;5091828;28;20039;-72
2023/11/21 04:36:51;;;;;;;19.58;12.20;;;;;;;;;;5092195;28;20036;-72
2023/11/21 04:39:55;;;;;;;15.57;10.60;;;;;;;;;;5091816;28;20635;-72
2023/11/21 04:42:59;;;;;;;16.52;11.20;;;;;;;;;;5091971;28;20043;-72
2023/11/21 04:46:04;;;;;;;18.15;9.98;;;;;;;;;;5091138;28;20035;-73
2023/11/21 04:49:08;;;;;;;17.35;10.23;;;;;;;;;;5091598;28;20052;-73
2023/11/21 04:52:13;;;;;;;13.02;10.07;;;;;;;;;;5092178;28;20388;-72
2023/11/21 04:55:17;;;;;;;16.60;9.90;;;;;;;;;;5092048;28;20051;-72
2023/11/21 04:58:22;;;;;;;17.63;9.77;;;;;;;;;;5091899;28;20040;-72
2023/11/21 05:01:27;;;;;;;16.67;10.27;;;;;;;;;;5092109;28;20044;-72
2023/11/21 05:04:31;;;;;;;17.48;10.13;;;;;;;;;;5078920;28;20043;-72
2023/11/21 05:07:35;;;;;;;16.80;10.05;;;;;;;;;;5090959;28;20055;-72
2023/11/21 05:10:39;;;;;;;15.75;10.85;;;;;;;;;;5091016;28;20055;-73
2023/11/21 05:13:43;;;;;;;16.15;10.98;;;;;;;;;;5091622;28;20055;-73
2023/11/21 05:16:48;;;;;;;16.70;10.82;;;;;;;;;;5091057;28;20507;-73
2023/11/21 05:19:52;;;;;;;16.00;9.93;;;;;;;;;;5090769;28;20391;-73
2023/11/21 05:22:58;;;;;;;12.82;10.07;;;;;;;;;;5081082;28;20045;-73
2023/11/21 05:26:03;;;;;;;15.63;11.40;;;;;;;;;;5094275;28;20039;-73
2023/11/21 05:29:07;;;;;;;14.23;10.23;;;;;;;;;;5094560;28;20055;-73
2023/11/21 05:32:11;;;;;;;20.30;9.13;;;;;;;;;;5094496;28;20047;-73
2023/11/21 05:35:16;;;;;;;17.70;10.30;;;;;;;;;;5094397;28;20055;-73
2023/11/21 05:38:21;;;;;;;18.63;10.38;;;;;;;;;;5095236;28;20047;-73
2023/11/21 05:41:25;;;;;;;18.80;11.05;;;;;;;;;;5095520;28;20526;-72
2023/11/21 05:44:30;;;;;;;23.05;10.63;;;;;;;;;;5095537;28;20043;-74
2023/11/21 05:47:35;;;;;;;23.10;10.85;;;;;;;;;;5095313;28;20039;-73
2023/11/21 05:50:40;;;;;;;24.70;12.43;;;;;;;;;;5094964;28;20051;-73
2023/11/21 05:53:44;;;;;;;21.02;11.50;;;;;;;;;;5095314;28;20039;-73
2023/11/21 05:56:52;;;;;;;17.13;10.43;;;;;;;;;;5095505;28;20047;-73
2023/11/21 05:59:57;;;;;;;16.92;12.13;;;;;;;;;;5095602;28;20051;-73
2023/11/21 06:03:01;;;;;;;19.02;11.85;;;;;;;;;;5095576;28;20071;-74
2023/11/21 06:06:06;;;;;;;20.30;11.90;;;;;;;;;;5094902;28;20047;-72
2023/11/21 06:09:11;;;;;;;19.83;11.65;;;;;;;;;;5096216;28;20055;-72
2023/11/21 06:12:16;;;;;;;18.40;9.93;;;;;;;;;;5096826;28;20051;-73
2023/11/21 06:15:32;;;;;;;18.42;10.70;;;;;;;;;;5086527;28;20047;-72
2023/11/21 06:18:36;;;;;;;25.67;11.63;;;;;;;;;;5100332;28;20051;-73
2023/11/21 06:21:50;;;;;;;22.02;11.77;;;;;;;;;;5100926;28;20040;-73
2023/11/21 06:25:09;;;;;;;23.48;11.52;;;14.30;99.90;;;;;;5088325;28;20043;-73
2023/11/21 06:28:17;;;;;;;20.85;12.27;;;;;;;;;;5100606;28;20031;-73
2023/11/21 06:31:24;;;;;;;20.83;12.63;;;;;;;;;;5098941;28;20557;-72
2023/11/21 06:34:30;;;;;;;20.95;11.77;;;;;;;;;;5097019;28;20035;-67
2023/11/21 06:37:35;;;;;;;24.55;14.23;;;14.30;99.90;;;;;;5093515;28;20039;-67
2023/11/21 06:40:44;;;;;;;32.38;19.85;;;;;;;;;;5081022;28;20054;-66
2023/11/21 06:43:49;;;;;;;23.50;16.25;;;;;;;;;;5092669;28;20047;-66
2023/11/21 06:46:57;;;;;;;21.50;13.93;;;;;;;;;;5093177;28;20047;-66
2023/11/21 06:50:02;;;;;;;23.88;13.07;;;;;;;;;;5080552;28;20055;-65
2023/11/21 06:53:09;;;;;;;22.45;13.43;;;14.50;99.90;;;;;;5080556;28;20046;-67
2023/11/21 06:56:18;;;;;;;26.15;14.20;;;;;;;;;;5092967;28;20050;-66
2023/11/21 06:59:31;;;;;;;19.95;14.65;;;;;;;;;;5081973;28;20043;-67
2023/11/21 07:02:45;;;;;;;22.77;13.68;;;;;;;;;;5092916;28;20047;-67
2023/11/21 07:05:49;;;;;;;31.77;15.23;;;;;;;;;;5092880;28;20502;-67
2023/11/21 07:08:53;;;;;;;25.05;13.20;;;;;;;;;;5092915;28;20059;-67
2023/11/21 07:11:58;;;;;;;22.15;12.77;;;;;;;;;;5092407;28;20047;-68
2023/11/21 07:15:05;;;;;;;23.05;13.55;;;;;;;;;;5091337;28;20043;-67
2023/11/21 07:18:09;;;;;;;24.52;14.95;;;;;;;;;;5091754;28;20625;-67
2023/11/21 07:21:16;;;;;;;24.17;13.05;;;;;;;;;;5092737;28;20039;-68
2023/11/21 07:24:34;;;;;;;21.13;12.77;;;;;;;;;;5092962;28;20047;-68
2023/11/21 07:27:38;;;;;;;24.10;13.30;;;;;;;;;;5092010;28;20043;-67
2023/11/21 07:30:43;;;;;;;19.70;11.57;;;15.10;99.90;;;;;;5092260;28;20499;-67
2023/11/21 07:33:48;;;;;;;28.67;13.57;;;;;;;;;;5092258;28;20051;-67
2023/11/21 07:36:52;;;;;;;21.77;11.77;;;;;;;;;;5092565;28;20146;-67
2023/11/21 07:39:56;;;;;;;22.25;13.52;;;;;;;;;;5092275;28;20047;-65
2023/11/21 07:43:10;;;;;;;20.83;10.40;;;;;;;;;;5091948;28;20498;-68
2023/11/21 07:46:14;;;;;;;21.90;11.38;;;;;;;;;;5091234;28;20050;-67
2023/11/21 07:49:21;;;;;;;22.10;11.20;;;;;;;;;;5092187;28;20043;-66
2023/11/21 07:52:25;;;;;;;18.10;9.38;;;;;;;;;;5078175;28;20404;-67
2023/11/21 07:55:33;;;;;;;13.45;8.07;;;16.90;99.90;;;;;;5091271;28;20032;-66
2023/11/21 07:58:38;;;;;;;18.15;9.32;;;;;;;;;;5090666;28;20066;-66
2023/11/21 08:01:43;;;;;;;11.88;7.63;;;;;;;;;;5090836;28;20498;-67
2023/11/21 08:04:49;;;;;;;15.95;7.93;;;;;;;;;;5091143;28;20047;-67
2023/11/21 08:07:57;;;;;;;16.33;7.60;;;16.60;99.90;;;;;;5091067;28;20063;-66
2023/11/21 08:11:03;;;;;;;13.27;7.85;;;;;;;;;;5090979;28;20055;-68
2023/11/21 08:14:08;;;;;;;11.98;7.05;;;;;;;;;;5090694;28;20044;-66
2023/11/21 08:17:13;;;;;;;13.02;7.75;;;;;;;;;;5067222;28;20055;-67
2023/11/21 08:20:18;;;;;;;14.30;7.45;;;;;;;;;;5090806;28;20504;-67
2023/11/21 08:23:26;;;;;;;15.20;7.28;;;;;;;;;;5078433;28;20048;-66
2023/11/21 08:26:31;;;;;;;13.63;7.65;;;;;;;;;;5091138;28;20044;-67
2023/11/21 08:29:36;;;;;;;21.52;8.82;;;;;;;;;;5090999;28;20036;-66
2023/11/21 08:32:40;;;;;;;14.85;7.63;;;;;;;;;;5091017;28;20043;-67
2023/11/21 08:35:52;;;;;;;16.35;7.30;;;18.20;99.90;;;;;;5091091;28;20043;-66
2023/11/21 08:38:56;;;;;;;15.98;6.50;;;;;;;;;;5090918;28;20099;-66
2023/11/21 08:42:01;;;;;;;9.13;5.97;;;;;;;;;;5090882;28;20032;-68
2023/11/21 08:45:08;;;;;;;19.40;8.85;;;;;;;;;;5090817;28;20032;-68
2023/11/21 08:48:15;;;;;;;15.90;7.50;;;;;;;;;;5078429;28;20510;-67
2023/11/21 08:51:20;;;;;;;13.10;7.35;;;;;;;;;;5090538;28;20506;-65
2023/11/21 08:54:25;;;;;;;17.58;6.82;;;;;;;;;;5090751;28;20506;-66
2023/11/21 08:57:29;;;;;;;17.80;7.13;;;;;;;;;;5093420;28;20040;-65
2023/11/21 09:00:36;;;;;;;21.52;7.82;;;;;;;;;;5094471;28;20036;-66
2023/11/21 09:03:40;;;;;;;17.52;7.45;;;;;;;;;;5095036;28;20399;-65
2023/11/21 09:06:45;;;;;;;16.05;6.60;;;;;;;;;;5094431;28;20051;-65
2023/11/21 09:09:51;;;;;;;10.57;5.63;;;;;;;;;;5094827;28;20051;-66
2023/11/21 09:13:02;;;;;;;10.23;4.90;;;18.00;99.90;;;;;;5094925;28;20047;-66
2023/11/21 09:16:06;;;;;;;8.60;5.45;;;;;;;;;;5094750;28;20043;-66
2023/11/21 09:19:11;;;;;;;14.52;7.05;;;;;;;;;;5094421;28;20032;-66
2023/11/21 09:22:15;;;;;;;11.13;5.97;;;;;;;;;;5094461;28;20388;-68
2023/11/21 09:25:21;;;;;;;11.70;5.50;;;;;;;;;;5094835;28;20536;-70
2023/11/21 09:28:27;;;;;;;15.13;5.32;;;;;;;;;;5094615;28;20036;-66
2023/11/21 09:31:35;;;;;;;9.07;4.50;;;18.10;99.90;;;;;;5093831;28;20048;-66
2023/11/21 09:34:40;;;;;;;9.02;5.15;;;;;;;;;;5094755;28;20039;-66
2023/11/21 09:37:45;;;;;;;15.38;5.40;;;;;;;;;;5094042;28;20039;-65
2023/11/21 09:40:52;;;;;;;10.70;5.43;;;;;;;;;;5094224;28;20471;-65
2023/11/21 09:44:00;;;;;;;13.57;5.65;;;20.00;99.90;;;;;;5081691;28;20145;-66
2023/11/21 09:47:04;;;;;;;14.10;6.30;;;;;;;;;;5094515;28;20066;-66
2023/11/21 09:50:15;;;;;;;13.32;5.72;;;18.10;99.90;;;;;;5093904;28;20057;-70
2023/11/21 09:53:24;;;;;;;11.75;5.13;;;18.20;99.90;;;;;;5094516;28;20035;-65
2023/11/21 09:56:29;;;;;;;13.95;5.00;;;;;;;;;;5094015;28;20050;-65
2023/11/21 09:59:35;;;;;;;14.75;5.68;;;;;;;;;;5094199;28;20051;-65
2023/11/21 10:02:40;;;;;;;9.43;5.50;;;;;;;;;;5093979;28;20039;-66
2023/11/21 10:05:45;;;;;;;16.20;4.80;;;;;;;;;;5093857;28;20044;-65
2023/11/21 10:08:50;;;;;;;11.88;3.85;;;18.70;99.90;;;;;;5093224;28;20040;-66
2023/11/21 10:11:57;;;;;;;11.75;3.05;;;19.00;99.90;;;;;;5080850;28;20051;-64
2023/11/21 10:15:07;;;;;;;6.40;2.67;;;19.20;99.90;;;;;;5093308;28;20514;-65
2023/11/21 10:18:15;;;;;;;8.85;3.00;;;19.10;99.90;;;;;;5093281;28;20051;-66
2023/11/21 10:21:20;;;;;;;11.10;5.20;;;;;;;;;;5057984;28;20035;-64
2023/11/21 10:24:24;;;;;;;11.10;2.95;;;;;;;;;;5080615;28;20040;-66
2023/11/21 10:27:29;;;;;;;7.57;2.20;;;;;;;;;;5093082;28;20036;-67
2023/11/21 10:30:36;;;;;;;11.18;2.53;;;;;;;;;;5080494;28;20048;-66
2023/11/21 10:33:41;;;;;;;6.38;2.30;;;;;;;;;;5092987;28;20051;-66
2023/11/21 10:36:46;;;;;;;10.43;2.50;;;21.40;99.90;;;;;;5092893;28;20040;-66
2023/11/21 10:39:50;;;;;;;5.90;2.00;;;19.30;99.90;;;;;;5092861;28;20051;-65
2023/11/21 10:43:08;;;;;;;9.48;2.60;;;20.00;99.90;;;;;;5092518;28;20138;-67
2023/11/21 10:46:17;;;;;;;22.48;3.65;;;19.40;99.90;;;;;;5092631;28;20066;-65
2023/11/21 10:49:30;;;;;;;9.80;3.08;;;19.40;99.90;;;;;;5079955;28;20058;-67
2023/11/21 10:52:36;;;;;;;15.38;3.00;;;;;;;;;;5092879;28;20043;-66
2023/11/21 10:55:44;;;;;;;10.48;3.10;;;;;;;;;;5092765;28;20045;-66
2023/11/21 10:58:50;;;;;;;20.05;3.05;;;19.40;99.90;;;;;;5079879;28;20398;-66
2023/11/21 11:01:57;;;;;;;19.35;3.53;;;19.40;99.90;;;;;;5092687;28;20035;-66
2023/11/21 11:05:03;;;;;;;14.38;2.67;;;19.30;99.90;;;;;;5080025;28;20051;-67
2023/11/21 11:08:13;;;;;;;20.95;2.90;;;19.50;99.90;;;;;;5092106;28;20055;-66
2023/11/21 11:11:18;;;;;;;9.40;2.88;;;;;;;;;;5079344;28;20059;-67
2023/11/21 11:14:25;;;;;;;22.00;2.97;;;19.50;99.90;;;;;;5092058;28;20381;-67
2023/11/21 11:17:32;;;;;;;16.25;3.38;;;;;;;;;;5092377;28;20046;-67
2023/11/21 11:20:38;;;;;;;12.77;4.05;;;19.50;99.90;;;;;;5078654;28;20051;-66
2023/11/21 11:24:08;;;;;;;13.13;2.80;;;19.20;99.90;;;;;;5091758;28;20051;-66
2023/11/21 11:27:34;;;;;;;10.45;2.42;;;19.50;99.90;;;;;;5068024;28;20043;-66
2023/11/21 11:31:04;;;;;;;14.57;2.70;;;19.60;99.90;;;;;;5078887;28;20479;-66
2023/11/21 11:34:31;;;;;;;9.25;2.65;;;19.80;99.90;;;;;;5091888;28;20039;-65
2023/11/21 11:37:35;;;;;;;11.10;2.72;;;19.70;99.90;;;;;;5091936;28;20059;-66
2023/11/21 11:40:53;;;;;;;8.23;2.28;;;18.50;99.90;;;;;;5091584;28;20051;-65
2023/11/21 11:43:57;;;;;;;12.38;2.67;;;;;;;;;;5079321;28;20510;-67
2023/11/21 11:47:02;;;;;;;11.60;2.30;;;;;;;;;;5091776;28;20039;-67
2023/11/21 11:50:16;;;;;;;6.18;3.03;;;20.00;99.90;;;;;;5091598;28;20028;-67
2023/11/21 11:53:22;;;;;;;18.75;3.67;;;19.70;99.90;;;;;;5091610;28;20142;-66
2023/11/21 11:56:27;;;;;;;10.13;2.88;;;20.00;99.90;;;;;;5078837;28;20039;-67
2023/11/21 12:00:20;;;;;;;10.13;2.60;;;18.90;99.90;;;;;;5090502;28;20039;-67
2023/11/21 12:03:24;;;;;;;11.00;2.75;;;21.50;99.90;;;;;;5091112;28;20532;-66
2023/11/21 12:06:35;;;;;;;8.10;2.13;;;20.10;99.90;;;;;;5078679;28;20054;-66
2023/11/21 12:09:42;;;;;;;7.63;2.13;;;;;;;;;;5078732;28;20043;-66
2023/11/21 12:12:55;;;;;;;6.60;2.28;;;20.00;99.90;;;;;;5091326;28;20048;-65
2023/11/21 12:15:59;;;;;;;22.17;3.58;;;;;;;;;;5091232;28;20043;-66
2023/11/21 12:19:03;;;;;;;11.77;2.63;;;;;;;;;;5091058;28;20044;-66
2023/11/21 12:22:08;;;;;;;7.80;2.33;;;;;;;;;;5091373;28;20584;-66
2023/11/21 12:25:15;;;;;;;11.95;2.83;;;;;;;;;;5090937;28;20040;-66
2023/11/21 12:28:22;;;;;;;15.85;4.20;;;;;;;;;;5091202;28;20040;-69
2023/11/21 12:31:27;;;;;;;12.10;2.90;;;;;;;;;;5093211;28;20052;-66
2023/11/21 12:34:31;;;;;;;9.45;2.67;;;20.10;99.90;;;;;;5095545;28;20047;-65
2023/11/21 12:37:42;;;;;;;8.65;2.20;;;19.50;99.90;;;;;;5095555;28;20407;-67
2023/11/21 12:40:46;;;;;;;9.52;2.15;;;;;;;;;;5095525;28;20039;-66
2023/11/21 12:43:51;;;;;;;4.03;2.13;;;20.00;99.90;;;;;;5095306;28;20059;-66
2023/11/21 12:46:55;;;;;;;13.40;2.95;;;;;;;;;;5094725;28;20039;-66
2023/11/21 12:50:01;;;;;;;13.18;3.58;;;;;;;;;;5093574;28;20597;-67
2023/11/21 12:53:12;;;;;;;10.23;3.10;;;19.90;99.90;;;;;;5094115;28;20040;-66
2023/11/21 12:56:17;;;;;;;17.25;3.80;;;;;;;;;;5094784;28;20039;-67
2023/11/21 12:59:22;;;;;;;15.68;3.13;;;;;;;;;;5094689;28;20040;-66
2023/11/21 13:02:27;;;;;;;15.52;3.35;;;19.90;99.90;;;;;;5081621;28;20044;-67
2023/11/21 13:05:35;;;;;;;7.93;2.38;;;19.90;99.90;;;;;;5094653;28;20392;-67
2023/11/21 13:08:39;;;;;;;9.18;2.05;;;;;;;;;;5094254;28;20066;-65
2023/11/21 13:11:45;;;;;;;6.25;1.83;;;;;;;;;;5081909;28;20080;-65
2023/11/21 13:14:49;;;;;;;4.40;2.47;;;;;;;;;;5094303;28;20040;-65
2023/11/21 13:17:54;;;;;;;6.55;2.30;;;19.80;99.90;;;;;;5094196;28;20040;-67
2023/11/21 13:20:59;;;;;;;8.77;2.45;;;19.80;99.90;;;;;;5093932;28;20059;-65
2023/11/21 13:24:04;;;;;;;11.00;2.30;;;19.80;99.90;;;;;;5081565;28;20047;-66
2023/11/21 13:27:10;;;;;;;15.02;2.72;;;19.80;99.90;;;;;;5094332;28;20043;-67
2023/11/21 13:30:23;;;;;;;5.78;1.80;;;19.80;99.90;;;;;;5081600;28;20043;-68
2023/11/21 13:33:28;;;;;;;7.13;2.70;;;;;;;;;;5094381;28;20043;-65
2023/11/21 13:36:35;;;;;;;11.55;3.03;;;;;;;;;;5081730;28;20040;-69
2023/11/21 13:39:44;;;;;;;6.97;2.40;;;;;;;;;;5081517;28;20039;-69
2023/11/21 13:42:53;;;;;;;6.70;2.17;;;19.70;99.90;;;;;;5080150;28;20127;-68
2023/11/21 13:46:12;;;;;;;12.88;2.70;;;;;;;;;;5093805;28;20047;-68
2023/11/21 13:49:18;;;;;;;8.40;1.85;;;;;;;;;;5093754;28;20488;-68
2023/11/21 13:52:33;;;;;;;7.45;2.03;;;19.60;99.90;;;;;;5081251;28;20048;-69
2023/11/21 13:55:40;;;;;;;12.32;3.00;;;;;;;;;;5070359;28;20058;-67
2023/11/21 13:58:51;;;;;;;8.07;2.30;;;;;;;;;;5093447;28;20028;-68
2023/11/21 14:01:59;;;;;;;9.38;2.60;;;;;;;;;;5093541;28;20036;-66
2023/11/21 14:05:09;;;;;;;13.45;2.70;;;;;;;;;;5093477;28;20040;-67
2023/11/21 14:08:21;;;;;;;17.17;3.20;;;19.50;99.90;;;;;;5093143;28;20051;-68
2023/11/21 14:11:25;;;;;;;11.45;3.20;;;;;;;;;;5093073;28;20049;-67
2023/11/21 14:14:29;;;;;;;13.07;2.95;;;;;;;;;;5093169;28;20028;-68
2023/11/21 14:17:35;;;;;;;12.32;3.40;;;;;;;;;;5080988;28;20399;-66
2023/11/21 14:20:40;;;;;;;14.70;3.40;;;;;;;;;;5094222;28;20046;-71
2023/11/21 14:23:45;;;;;;;9.57;2.55;;;;;;;;;;5093211;28;20044;-67
2023/11/21 14:26:49;;;;;;;11.30;2.78;;;;;;;;;;5093423;28;20044;-65
2023/11/21 14:29:57;;;;;;;21.70;4.13;;;19.50;99.90;;;;;;5092802;28;20047;-64
2023/11/21 14:33:02;;;;;;;19.92;3.45;;;19.50;99.90;;;;;;5093270;28;20051;-64
2023/11/21 14:36:09;;;;;;;14.95;3.08;;;19.30;99.90;;;;;;5080482;28;20051;-65
2023/11/21 14:39:37;;;;;;;15.82;3.30;;;;;;;;;;5080796;28;20051;-64
2023/11/21 14:42:41;;;;;;;16.25;3.05;;;;;;;;;;5092720;28;20031;-65
2023/11/21 14:45:45;;;;;;;16.67;3.38;;;;;;;;;;5092707;28;20066;-66
2023/11/21 14:49:01;;;;;;;11.48;3.35;;;;;;;;;;5080642;28;20044;-65
2023/11/21 14:52:25;;;;;;;16.23;3.40;;;;;;;;;;5092914;28;20499;-67
2023/11/21 14:58:55;;;;;;;18.20;3.53;;;;;;;;;;5092305;28;20036;-65
2023/11/21 15:02:09;;;;;;;5.75;1.42;;;;;;;;;;5092185;28;20036;-66
2023/11/21 15:05:16;;;;;;;3.38;1.30;;;;;;;;;;5092097;28;20040;-65
2023/11/21 15:08:30;;;;;;;6.10;1.10;;;;;;;;;;5091912;28;20044;-63
2023/11/21 15:11:35;;;;;;;13.18;2.90;;;18.50;99.90;;;;;;5092026;28;20044;-65
2023/11/21 15:14:39;;;;;;;5.43;2.00;;;;;;;;;;5092106;28;20056;-65
2023/11/21 15:17:43;;;;;;;13.65;2.47;;;;;;;;;;5091788;28;20032;-64
2023/11/21 15:20:47;;;;;;;11.65;2.70;;;;;;;;;;5091594;28;20043;-65
2023/11/21 15:23:52;;;;;;;17.83;3.42;;;;;;;;;;5092162;28;20035;-65
2023/11/21 15:26:56;;;;;;;9.40;3.40;;;;;;;;;;5092002;28;20027;-65
2023/11/21 15:30:01;;;;;;;13.23;2.55;;;;;;;;;;5091774;28;20032;-65
2023/11/21 15:33:06;;;;;;;7.63;2.53;;;;;;;;;;5091466;28;20044;-65
2023/11/21 15:36:10;;;;;;;18.88;5.60;;;;;;;;;;5079079;28;20032;-66
2023/11/21 15:39:15;;;;;;;15.65;3.17;;;;;;;;;;5090924;28;20506;-66
2023/11/21 15:42:20;;;;;;;14.20;3.58;;;;;;;;;;5090314;28;20036;-66
2023/11/21 15:45:25;;;;;;;11.45;2.42;;;;;;;;;;5091334;28;20487;-65
2023/11/21 15:48:30;;;;;;;16.65;3.55;;;;;;;;;;5091521;28;20055;-65
2023/11/21 15:51:36;;;;;;;11.93;2.45;;;;;;;;;;5091226;28;20052;-64
2023/11/21 15:54:40;;;;;;;21.13;5.95;;;;;;;;;;5091143;28;20392;-65
2023/11/21 15:57:45;;;;;;;14.15;3.25;;;;;;;;;;5091407;28;20044;-65
2023/11/21 16:00:49;;;;;;;13.88;3.45;;;;;;;;;;5090923;28;20036;-65
2023/11/21 16:03:54;;;;;;;29.50;3.60;;;;;;;;;;5091066;28;20050;-65
2023/11/21 16:06:59;;;;;;;13.30;2.80;;;;;;;;;;5090390;28;20506;-65
2023/11/21 16:10:04;;;;;;;15.27;3.78;;;;;;;;;;5090907;28;20048;-66
2023/11/21 16:13:08;;;;;;;17.45;3.70;;;;;;;;;;5090976;28;20040;-65
2023/11/21 16:16:12;;;;;;;20.13;4.35;;;;;;;;;;5091048;28;20135;-65
2023/11/21 16:19:17;;;;;;;19.75;7.70;;;;;;;;;;5090643;28;20036;-66
2023/11/21 16:22:21;;;;;;;19.42;4.05;;;;;;;;;;5078531;28;20055;-66
2023/11/21 16:25:26;;;;;;;15.98;3.95;;;;;;;;;;5090838;28;20430;-66
2023/11/21 16:28:30;;;;;;;20.92;4.50;;;;;;;;;;5091141;28;20043;-65
2023/11/21 16:31:34;;;;;;;18.52;4.50;;;;;;;;;;5090446;28;20048;-66
2023/11/21 16:34:40;;;;;;;19.20;5.00;;;;;;;;;;5090937;28;20040;-66
2023/11/21 16:37:47;;;;;;;18.48;6.20;;;;;;;;;;5090474;28;20032;-65
2023/11/21 16:40:52;;;;;;;22.30;4.38;;;;;;;;;;5090419;28;20047;-65
2023/11/21 16:43:56;;;;;;;22.27;6.40;;;;;;;;;;5090854;28;20039;-65
2023/11/21 16:47:06;;;;;;;14.48;4.65;;;;;;;;;;5090658;28;20037;-64
2023/11/21 16:50:10;;;;;;;19.27;4.00;;;;;;;;;;5090468;28;20039;-65
2023/11/21 16:53:14;;;;;;;14.43;3.55;;;;;;;;;;5078095;28;20044;-64
2023/11/21 16:56:19;;;;;;;11.25;3.38;;;;;;;;;;5090711;28;20035;-65
2023/11/21 16:59:23;;;;;;;15.65;4.00;;;;;;;;;;5090534;28;20495;-65
2023/11/21 17:02:27;;;;;;;14.20;5.35;;;;;;;;;;5090345;28;20043;-65
2023/11/21 17:05:32;;;;;;;11.95;4.65;;;;;;;;;;5090218;28;20047;-65
2023/11/21 17:08:36;;;;;;;19.08;5.93;;;;;;;;;;5090073;28;20658;-65
2023/11/21 17:11:41;;;;;;;24.50;8.80;;;;;;;;;;5090167;28;20040;-66
2023/11/21 17:14:48;;;;;;;24.27;9.48;;;19.20;99.90;;;;;;5090303;28;20036;-65
2023/11/21 17:17:55;;;;;;;19.40;6.53;;;;;;;;;;5079674;28;20074;-66
2023/11/21 17:20:59;;;;;;;16.30;5.22;;;;;;;;;;5094203;28;20051;-66
2023/11/21 17:24:04;;;;;;;19.60;5.28;;;;;;;;;;5094071;28;20036;-65
2023/11/21 17:27:10;;;;;;;11.15;3.40;;;;;;;;;;5093910;28;20036;-64
2023/11/21 17:30:14;;;;;;;14.40;4.07;;;17.90;99.90;;;;;;5094070;28;20611;-66
2023/11/21 17:33:19;;;;;;;12.95;3.90;;;;;;;;;;5093896;28;20514;-64
2023/11/21 17:36:24;;;;;;;19.73;5.15;;;;;;;;;;5093947;28;20036;-64
2023/11/21 17:39:28;;;;;;;9.50;3.10;;;;;;;;;;5093522;28;20054;-64
2023/11/21 17:42:37;;;;;;;8.57;3.20;;;;;;;;;;5093461;28;20108;-64
2023/11/21 17:45:41;;;;;;;8.63;3.15;;;;;;;;;;5093706;28;20369;-64
2023/11/21 17:48:45;;;;;;;12.38;3.72;;;;;;;;;;5081141;28;20629;-64
2023/11/21 17:51:50;;;;;;;11.88;3.58;;;;;;;;;;5093279;28;20399;-64